Time;durP1;ratioP1;P1;durP2;ratioP2;P2;SDS_P1;SDS_P2;PMS_P1;PMS_P2;Temp;Humidity;BMP_temperature;BMP_pressure;BME280_temperature;BME280_humidity;BME280_pressure;Samples;Min_cycle;Max_cycle;Signal;HPM_P1;HPM_P2
2022/12/12 00:00:18;;;;;;;26.10;14.27;;;0.90;99.90;;;;;;7371939;19;20542;-44
2022/12/12 00:02:45;;;;;;;23.55;14.05;;;0.90;99.90;;;;;;7367240;19;20085;-46
2022/12/12 00:05:15;;;;;;;23.45;14.88;;;0.80;99.90;;;;;;7373062;19;20018;-46
2022/12/12 00:07:41;;;;;;;22.83;13.38;;;0.80;99.90;;;;;;7371067;19;20025;-45
2022/12/12 00:10:10;;;;;;;23.20;14.40;;;0.80;99.90;;;;;;7367989;19;20019;-44
2022/12/12 00:12:36;;;;;;;22.77;12.93;;;0.80;99.90;;;;;;7367648;19;20018;-44
2022/12/12 00:15:03;;;;;;;23.13;13.95;;;0.80;99.90;;;;;;7371397;19;20029;-44
2022/12/12 00:17:30;;;;;;;26.70;14.30;;;0.90;99.90;;;;;;7365704;19;20616;-44
2022/12/12 00:19:56;;;;;;;23.20;13.90;;;0.90;99.90;;;;;;7368585;19;20041;-46
2022/12/12 00:22:23;;;;;;;22.15;13.88;;;0.90;99.90;;;;;;7366808;19;20021;-49
2022/12/12 00:24:50;;;;;;;20.45;12.45;;;0.90;99.90;;;;;;7369345;19;20869;-45
2022/12/12 00:27:16;;;;;;;23.88;14.77;;;0.90;99.90;;;;;;7368194;19;20377;-47
2022/12/12 00:29:42;;;;;;;22.83;13.20;;;0.90;99.90;;;;;;7371035;19;20019;-47
2022/12/12 00:32:08;;;;;;;22.67;13.05;;;0.90;99.90;;;;;;7368411;19;20038;-46
2022/12/12 00:34:36;;;;;;;22.88;15.00;;;0.90;99.90;;;;;;7368002;19;20049;-45
2022/12/12 00:37:03;;;;;;;20.70;13.60;;;0.80;99.90;;;;;;7369152;19;20688;-49
2022/12/12 00:39:29;;;;;;;22.80;13.05;;;0.90;99.90;;;;;;7372138;19;20486;-48
2022/12/12 00:41:55;;;;;;;22.20;13.43;;;0.90;99.90;;;;;;7370146;19;20486;-46
2022/12/12 00:44:22;;;;;;;22.27;14.27;;;0.90;99.90;;;;;;7370171;19;20048;-47
2022/12/12 00:46:48;;;;;;;20.73;12.75;;;0.90;99.90;;;;;;7371652;19;20018;-46
2022/12/12 00:49:20;;;;;;;21.25;12.70;;;0.80;99.90;;;;;;7362915;19;20023;-45
2022/12/12 00:51:47;;;;;;;20.42;13.48;;;0.80;99.90;;;;;;7364642;19;20491;-45
2022/12/12 00:54:13;;;;;;;22.35;13.18;;;0.90;99.90;;;;;;7361767;19;20523;-46
2022/12/12 00:56:40;;;;;;;22.35;12.40;;;0.90;99.90;;;;;;7368086;19;20026;-44
2022/12/12 00:59:08;;;;;;;21.45;13.45;;;0.90;99.90;;;;;;7363690;19;20485;-48
2022/12/12 01:01:35;;;;;;;21.85;13.88;;;0.90;99.90;;;;;;7366855;19;20035;-44
2022/12/12 01:04:03;;;;;;;20.95;13.57;;;0.90;99.90;;;;;;7370817;19;20024;-46
2022/12/12 01:06:30;;;;;;;20.38;12.95;;;0.80;99.90;;;;;;7373617;19;20018;-47
2022/12/12 01:08:58;;;;;;;19.52;12.85;;;0.80;99.90;;;;;;7375874;19;20029;-45
2022/12/12 01:11:24;;;;;;;21.08;12.50;;;0.80;99.90;;;;;;7369964;19;20095;-45
2022/12/12 01:13:53;;;;;;;21.20;13.07;;;0.80;99.90;;;;;;7373055;19;20509;-46
2022/12/12 01:16:20;;;;;;;20.45;11.23;;;0.90;99.90;;;;;;7371249;19;20092;-44
2022/12/12 01:18:47;;;;;;;21.10;12.73;;;0.80;99.90;;;;;;7374032;19;20027;-44
2022/12/12 01:21:15;;;;;;;22.88;12.77;;;0.80;99.90;;;;;;7369363;19;20504;-46
2022/12/12 01:23:42;;;;;;;18.02;11.52;;;0.80;99.90;;;;;;7376728;19;20018;-46
2022/12/12 01:26:16;;;;;;;21.40;13.45;;;0.80;99.90;;;;;;7375292;19;20537;-49
2022/12/12 01:28:44;;;;;;;22.50;13.02;;;0.80;99.90;;;;;;7379818;19;20019;-48
2022/12/12 01:31:12;;;;;;;22.70;12.80;;;0.80;99.90;;;;;;7379439;19;20023;-49
2022/12/12 01:33:38;;;;;;;20.67;12.88;;;0.80;99.90;;;;;;7381170;19;20026;-49
2022/12/12 01:36:05;;;;;;;24.17;14.35;;;0.80;99.90;;;;;;7374755;19;20452;-46
2022/12/12 01:38:32;;;;;;;20.38;12.32;;;0.80;99.90;;;;;;7376037;19;20458;-46
2022/12/12 01:40:58;;;;;;;23.95;13.10;;;0.80;99.90;;;;;;7382331;19;20021;-47
2022/12/12 01:43:24;;;;;;;20.52;12.18;;;0.80;99.90;;;;;;7379528;19;20034;-47
2022/12/12 01:45:57;;;;;;;18.38;11.48;;;0.80;99.90;;;;;;7380655;19;20478;-48
2022/12/12 01:48:33;;;;;;;22.40;12.77;;;0.80;99.90;;;;;;7379871;19;20724;-50
2022/12/12 01:51:05;;;;;;;19.48;12.00;;;0.80;99.90;;;;;;7383400;19;20017;-49
2022/12/12 01:53:33;;;;;;;23.20;13.10;;;0.80;99.90;;;;;;7378727;19;20036;-48
2022/12/12 01:56:04;;;;;;;19.73;11.60;;;0.80;99.90;;;;;;7381073;19;20047;-47
2022/12/12 01:58:31;;;;;;;19.50;11.90;;;0.80;99.90;;;;;;7379730;19;20094;-47
2022/12/12 02:00:58;;;;;;;19.65;11.95;;;0.80;99.90;;;;;;7383158;19;20013;-49
2022/12/12 02:03:26;;;;;;;19.83;12.32;;;0.80;99.90;;;;;;7377245;19;20714;-49
2022/12/12 02:05:58;;;;;;;19.38;12.48;;;0.80;99.90;;;;;;7377864;19;20029;-47
2022/12/12 02:08:25;;;;;;;19.33;12.32;;;0.70;99.90;;;;;;7380928;19;20382;-48
2022/12/12 02:10:52;;;;;;;20.45;12.63;;;0.80;99.90;;;;;;7382669;19;20043;-46
2022/12/12 02:13:22;;;;;;;19.17;12.10;;;0.80;99.90;;;;;;7374870;19;20379;-48
2022/12/12 02:16:06;;;;;;;21.92;11.75;;;0.80;99.90;;;;;;7381145;19;20022;-47
2022/12/12 02:18:59;;;;;;;18.63;12.00;;;0.80;99.90;;;;;;7377826;19;20127;-46
2022/12/12 02:21:32;;;;;;;20.45;12.77;;;0.80;99.90;;;;;;7379875;19;20034;-48
2022/12/12 02:24:11;;;;;;;20.17;11.52;;;0.80;99.90;;;;;;7377930;19;21354;-49
2022/12/12 02:26:58;;;;;;;21.38;11.68;;;0.80;99.90;;;;;;7377086;19;20463;-48
2022/12/12 02:29:57;;;;;;;19.85;11.85;;;0.70;99.90;;;;;;7380288;19;20162;-49
2022/12/12 02:32:45;;;;;;;19.08;11.20;;;0.70;99.90;;;;;;7378907;19;20043;-48
2022/12/12 02:35:39;;;;;;;21.33;12.38;;;0.70;99.90;;;;;;7376674;19;20018;-46
2022/12/12 02:38:29;;;;;;;17.67;10.90;;;0.80;99.90;;;;;;7379389;19;20025;-50
2022/12/12 02:41:21;;;;;;;19.85;11.18;;;0.80;99.90;;;;;;7374124;19;20014;-46
2022/12/12 02:44:08;;;;;;;22.50;11.93;;;0.80;99.90;;;;;;7379863;19;20031;-47
2022/12/12 02:46:40;;;;;;;19.75;11.98;;;0.80;99.90;;;;;;7377082;19;20023;-49
2022/12/12 02:49:18;;;;;;;18.52;11.35;;;0.70;99.90;;;;;;7377828;19;20043;-44
2022/12/12 02:51:46;;;;;;;19.30;10.93;;;0.80;99.90;;;;;;7377539;19;20026;-44
2022/12/12 02:54:15;;;;;;;21.85;12.32;;;0.80;99.90;;;;;;7377375;19;20015;-45
2022/12/12 02:56:58;;;;;;;18.58;12.18;;;0.70;99.90;;;;;;7377661;19;20055;-46
2022/12/12 02:59:34;;;;;;;20.25;11.70;;;0.70;99.90;;;;;;7379763;19;20022;-49
2022/12/12 03:02:39;;;;;;;21.30;13.27;;;0.80;99.90;;;;;;7379390;19;20442;-49
2022/12/12 03:08:36;;;;;;;19.52;10.85;;;0.80;99.90;;;;;;7375539;19;20085;-45
2022/12/12 03:11:09;;;;;;;19.55;11.82;;;0.70;99.90;;;;;;7380332;19;20015;-49
2022/12/12 03:14:22;;;;;;;19.25;12.35;;;0.70;99.90;;;;;;7374035;19;20030;-46
2022/12/12 03:17:00;;;;;;;19.63;12.07;;;0.80;99.90;;;;;;7373845;19;20120;-44
2022/12/12 03:20:11;;;;;;;19.38;12.02;;;0.70;99.90;;;;;;7374031;19;20022;-46
2022/12/12 03:22:52;;;;;;;20.15;11.35;;;0.70;99.90;;;;;;7373790;19;20635;-43
2022/12/12 03:25:33;;;;;;;20.67;12.40;;;0.70;99.90;;;;;;7377189;19;20085;-46
2022/12/12 03:28:04;;;;;;;18.48;12.02;;;0.80;99.90;;;;;;7375638;19;20388;-49
2022/12/12 03:30:37;;;;;;;18.70;11.70;;;0.70;99.90;;;;;;7379997;19;20026;-43
2022/12/12 03:33:12;;;;;;;18.58;11.43;;;0.70;99.90;;;;;;7375932;19;20378;-44
2022/12/12 03:35:45;;;;;;;23.00;13.32;;;0.70;99.90;;;;;;7379378;19;20019;-46
2022/12/12 03:38:20;;;;;;;;;;;0.70;99.90;;;;;;7378392;19;20018;-44
2022/12/12 03:40:51;;;;;;;20.30;12.68;;;0.70;99.90;;;;;;7380453;19;19933;-44
2022/12/12 03:43:23;;;;;;;21.92;13.23;;;0.70;99.90;;;;;;7377178;19;20046;-47
2022/12/12 03:45:52;;;;;;;20.38;11.77;;;0.70;99.90;;;;;;7379305;19;20018;-44
2022/12/12 03:48:39;;;;;;;19.73;12.48;;;0.70;99.90;;;;;;7376246;19;20022;-47
2022/12/12 03:51:10;;;;;;;23.67;13.40;;;0.70;99.90;;;;;;7379649;19;20623;-45
2022/12/12 03:53:50;;;;;;;22.87;12.40;;;0.70;99.90;;;;;;7377578;19;20022;-45
2022/12/12 03:56:33;;;;;;;19.73;12.45;;;0.70;99.90;;;;;;7381805;19;20022;-48
2022/12/12 03:59:06;;;;;;;21.75;12.82;;;0.70;99.90;;;;;;7380409;19;20090;-45
2022/12/12 04:01:59;;;;;;;20.00;12.10;;;0.70;99.90;;;;;;7380594;19;20019;-45
2022/12/12 04:04:44;;;;;;;20.48;12.15;;;0.70;99.90;;;;;;7373835;19;20065;-44
2022/12/12 04:07:22;;;;;;;19.85;11.40;;;0.70;99.90;;;;;;7377742;19;20018;-44
2022/12/12 04:12:58;;;;;;;20.67;13.25;;;0.70;99.90;;;;;;7376230;19;20022;-44
2022/12/12 04:15:46;;;;;;;24.77;14.60;;;0.70;99.90;;;;;;7368725;19;20022;-44
2022/12/12 04:18:39;;;;;;;19.67;12.43;;;0.70;99.90;;;;;;7376356;19;20022;-46
2022/12/12 04:24:16;;;;;;;23.13;13.05;;;0.70;99.90;;;;;;7379917;19;20015;-48
2022/12/12 04:27:04;;;;;;;23.02;13.85;;;0.70;99.90;;;;;;7374237;19;20399;-47
2022/12/12 04:30:01;;;;;;;21.40;13.23;;;0.70;99.90;;;;;;7375125;19;20021;-47
2022/12/12 04:33:03;;;;;;;20.90;14.18;;;0.70;99.90;;;;;;7377884;19;20019;-46
2022/12/12 04:35:38;;;;;;;21.63;13.68;;;0.70;99.90;;;;;;7376628;19;20018;-44
2022/12/12 04:38:14;;;;;;;22.38;12.98;;;0.70;99.90;;;;;;7381902;19;20014;-46
2022/12/12 04:40:48;;;;;;;21.63;12.98;;;0.80;99.90;;;;;;7385701;19;20022;-48
2022/12/12 04:43:17;;;;;;;21.55;12.38;;;0.80;99.90;;;;;;7386289;19;20090;-46
2022/12/12 04:46:11;;;;;;;21.17;13.48;;;0.80;99.90;;;;;;7381413;19;20469;-48
2022/12/12 04:48:59;;;;;;;20.98;13.63;;;0.80;99.90;;;;;;7381689;19;20023;-45
2022/12/12 04:51:33;;;;;;;20.98;13.82;;;0.80;99.90;;;;;;7382062;19;20040;-45
2022/12/12 04:54:23;;;;;;;20.58;12.82;;;0.80;99.90;;;;;;7382068;19;20043;-44
2022/12/12 04:56:53;;;;;;;21.27;14.25;;;0.80;99.90;;;;;;7380468;19;20060;-43
2022/12/12 04:59:22;;;;;;;21.02;13.82;;;0.80;99.90;;;;;;7378988;19;20026;-44
2022/12/12 05:02:05;;;;;;;20.10;12.80;;;0.80;99.90;;;;;;7387115;19;20022;-45
2022/12/12 05:04:38;;;;;;;18.92;12.63;;;0.80;99.90;;;;;;7385251;19;20018;-49
2022/12/12 05:07:15;;;;;;;19.70;12.27;;;0.80;99.90;;;;;;7384106;19;20357;-46
2022/12/12 05:09:42;;;;;;;20.58;12.35;;;0.90;99.90;;;;;;7380457;19;20530;-46
2022/12/12 05:12:09;;;;;;;24.10;13.20;;;0.80;99.90;;;;;;7384689;19;20022;-45
2022/12/12 05:14:35;;;;;;;20.52;13.13;;;0.80;99.90;;;;;;7382217;19;20029;-46
2022/12/12 05:17:10;;;;;;;22.67;14.25;;;0.90;99.90;;;;;;7382793;19;20018;-50
2022/12/12 05:19:36;;;;;;;20.17;13.55;;;0.80;99.90;;;;;;7383079;19;20466;-45
2022/12/12 05:22:02;;;;;;;18.88;11.95;;;0.80;99.90;;;;;;7382605;19;20014;-44
2022/12/12 05:24:29;;;;;;;20.58;13.27;;;0.80;99.90;;;;;;7380134;19;20376;-46
2022/12/12 05:26:57;;;;;;;19.38;12.63;;;0.80;99.90;;;;;;7379036;19;20022;-44
2022/12/12 05:29:23;;;;;;;20.42;12.15;;;0.80;99.90;;;;;;7374968;19;20508;-44
2022/12/12 05:31:50;;;;;;;21.83;12.40;;;0.80;99.90;;;;;;7379954;19;20019;-45
2022/12/12 05:34:17;;;;;;;21.75;12.63;;;0.80;99.90;;;;;;7374676;19;20378;-48
2022/12/12 05:36:43;;;;;;;19.90;13.05;;;0.80;99.90;;;;;;7375902;19;20018;-49
2022/12/12 05:39:09;;;;;;;23.65;14.63;;;0.80;99.90;;;;;;7379217;19;20716;-46
2022/12/12 05:41:36;;;;;;;23.85;14.32;;;0.80;99.90;;;;;;7376564;19;20018;-44
2022/12/12 05:44:02;;;;;;;23.45;12.93;;;0.80;99.90;;;;;;7379255;19;20813;-44
2022/12/12 05:46:28;;;;;;;22.27;13.52;;;0.80;99.90;;;;;;7379568;19;20043;-46
2022/12/12 05:48:54;;;;;;;20.40;11.80;;;0.80;99.90;;;;;;7372067;19;20044;-44
2022/12/12 05:51:21;;;;;;;19.85;12.52;;;0.80;99.90;;;;;;7377442;19;20054;-46
2022/12/12 05:53:50;;;;;;;21.65;13.98;;;0.80;99.90;;;;;;7382139;19;20082;-47
2022/12/12 05:56:36;;;;;;;22.17;13.30;;;0.80;99.90;;;;;;7380124;19;20666;-46
2022/12/12 05:59:22;;;;;;;22.70;12.77;;;0.80;99.90;;;;;;7377388;19;20015;-45
2022/12/12 06:02:08;;;;;;;21.33;13.75;;;0.80;99.90;;;;;;7383461;19;20031;-43
2022/12/12 06:04:55;;;;;;;19.23;11.85;;;0.70;99.90;;;;;;7377014;19;20010;-45
2022/12/12 06:07:41;;;;;;;20.48;12.23;;;0.80;99.90;;;;;;7377068;19;20018;-48
2022/12/12 06:10:28;;;;;;;19.70;13.35;;;0.80;99.90;;;;;;7377894;19;20089;-44
2022/12/12 06:13:15;;;;;;;19.23;13.05;;;0.70;99.90;;;;;;7378688;19;20026;-44
2022/12/12 06:16:13;;;;;;;21.20;12.20;;;0.70;99.90;;;;;;7377703;19;20499;-47
2022/12/12 06:18:59;;;;;;;21.05;13.63;;;0.70;99.90;;;;;;7377344;19;20018;-46
2022/12/12 06:21:46;;;;;;;18.33;12.68;;;0.70;99.90;;;;;;7376092;19;20018;-45
2022/12/12 06:24:32;;;;;;;19.77;13.30;;;0.70;99.90;;;;;;7379397;19;20026;-46
2022/12/12 06:27:18;;;;;;;20.45;13.55;;;0.70;99.90;;;;;;7380750;19;20368;-45
2022/12/12 06:30:05;;;;;;;21.45;13.25;;;0.70;99.90;;;;;;7378584;19;20044;-48
2022/12/12 06:32:52;;;;;;;20.45;12.27;;;0.70;99.90;;;;;;7381111;19;20040;-48
2022/12/12 06:35:38;;;;;;;21.83;14.05;;;0.70;99.90;;;;;;7379003;19;20045;-47
2022/12/12 06:38:24;;;;;;;22.48;13.80;;;0.70;99.90;;;;;;7376875;19;20687;-44
2022/12/12 06:41:13;;;;;;;22.52;13.45;;;0.70;99.90;;;;;;7377352;19;20046;-43
2022/12/12 06:43:59;;;;;;;22.83;13.35;;;0.70;99.90;;;;;;7373324;19;20018;-45
2022/12/12 06:46:46;;;;;;;24.55;14.13;;;0.70;99.90;;;;;;7374343;19;20687;-47
2022/12/12 06:49:32;;;;;;;21.75;13.65;;;0.70;99.90;;;;;;7374053;19;20023;-46
2022/12/12 06:52:18;;;;;;;22.52;13.48;;;0.70;99.90;;;;;;7369056;19;20011;-43
2022/12/12 06:55:05;;;;;;;22.08;13.95;;;0.70;99.90;;;;;;7369562;19;20488;-46
2022/12/12 06:57:51;;;;;;;20.88;12.90;;;0.70;99.90;;;;;;7377375;19;20070;-44
2022/12/12 07:00:37;;;;;;;22.15;13.27;;;0.70;99.90;;;;;;7372824;19;20112;-45
2022/12/12 07:03:23;;;;;;;22.52;13.20;;;0.70;99.90;;;;;;7373964;19;20514;-45
2022/12/12 07:06:10;;;;;;;20.15;12.20;;;0.70;99.90;;;;;;7377036;19;20388;-45
2022/12/12 07:08:58;;;;;;;23.00;14.73;;;0.70;99.90;;;;;;7369606;19;20022;-44
2022/12/12 07:11:44;;;;;;;21.35;13.18;;;0.70;99.90;;;;;;7369474;19;20043;-48
2022/12/12 07:14:31;;;;;;;22.38;13.15;;;0.70;99.90;;;;;;7375069;19;20109;-45
2022/12/12 07:17:17;;;;;;;23.42;14.30;;;0.80;99.90;;;;;;7372915;19;20018;-47
2022/12/12 07:20:04;;;;;;;21.73;13.20;;;0.70;99.90;;;;;;7374086;19;20010;-43
2022/12/12 07:22:50;;;;;;;21.50;14.05;;;0.70;99.90;;;;;;7376263;19;20026;-43
2022/12/12 07:25:40;;;;;;;19.67;12.57;;;0.70;99.90;;;;;;7374056;19;20023;-47
2022/12/12 07:28:26;;;;;;;19.88;12.18;;;0.70;99.90;;;;;;7366107;19;20015;-44
2022/12/12 07:31:16;;;;;;;22.50;13.45;;;0.70;99.90;;;;;;7373844;19;20022;-44
2022/12/12 07:33:42;;;;;;;19.95;12.60;;;0.70;99.90;;;;;;7373325;19;20014;-44
2022/12/12 07:36:09;;;;;;;20.80;13.05;;;0.70;99.90;;;;;;7372171;19;20041;-44
2022/12/12 07:38:36;;;;;;;21.63;12.85;;;0.70;99.90;;;;;;7375211;19;20026;-47
2022/12/12 07:41:04;;;;;;;22.73;13.88;;;0.70;99.90;;;;;;7375350;19;20019;-48
2022/12/12 07:43:33;;;;;;;21.02;12.52;;;0.70;99.90;;;;;;7374563;19;20046;-44
2022/12/12 07:46:01;;;;;;;21.50;13.80;;;0.70;99.90;;;;;;7374766;19;20035;-45
2022/12/12 07:48:31;;;;;;;19.77;12.27;;;0.70;99.90;;;;;;7378725;19;20023;-46
2022/12/12 07:50:59;;;;;;;21.20;13.00;;;0.70;99.90;;;;;;7374874;19;20020;-45
2022/12/12 07:53:26;;;;;;;19.00;11.70;;;0.70;99.90;;;;;;7374869;19;20052;-44
2022/12/12 07:55:52;;;;;;;20.08;13.00;;;0.70;99.90;;;;;;7375049;19;20010;-46
2022/12/12 07:58:19;;;;;;;22.27;13.30;;;0.70;99.90;;;;;;7376025;19;20060;-49
2022/12/12 08:00:47;;;;;;;20.10;13.32;;;0.70;99.90;;;;;;7377197;19;20359;-47
2022/12/12 08:03:14;;;;;;;19.55;13.57;;;0.80;99.90;;;;;;7376898;19;20510;-48
2022/12/12 08:05:42;;;;;;;21.15;13.48;;;0.70;99.90;;;;;;7375934;19;20014;-47
2022/12/12 08:08:15;;;;;;;21.00;13.18;;;0.70;99.90;;;;;;7373617;19;20077;-49
2022/12/12 08:10:41;;;;;;;22.65;13.40;;;0.80;99.90;;;;;;7375838;19;20022;-48
2022/12/12 08:13:07;;;;;;;20.88;12.88;;;0.80;99.90;;;;;;7370762;19;20019;-48
2022/12/12 08:15:34;;;;;;;21.63;13.70;;;0.80;99.90;;;;;;7376898;19;20379;-46
2022/12/12 08:18:00;;;;;;;19.67;13.52;;;0.80;99.90;;;;;;7371860;19;20018;-50
2022/12/12 08:20:27;;;;;;;24.27;15.02;;;0.90;99.90;;;;;;7373547;19;20035;-47
2022/12/12 08:22:54;;;;;;;19.48;13.23;;;0.90;99.90;;;;;;7370753;19;20427;-48
2022/12/12 08:25:20;;;;;;;21.90;14.57;;;0.90;99.90;;;;;;7368448;19;20043;-48
2022/12/12 08:27:47;;;;;;;21.48;13.90;;;0.90;99.90;;;;;;7370925;19;20022;-49
2022/12/12 08:30:13;;;;;;;22.02;13.48;;;0.90;99.90;;;;;;7373142;19;20491;-49
2022/12/12 08:32:39;;;;;;;22.95;13.15;;;1.00;99.90;;;;;;7367276;19;20042;-50
2022/12/12 08:35:09;;;;;;;21.33;13.57;;;1.00;99.90;;;;;;7374264;19;20581;-49
2022/12/12 08:37:36;;;;;;;22.67;13.50;;;1.00;99.90;;;;;;7372642;19;20676;-47
2022/12/12 08:40:04;;;;;;;18.73;11.88;;;1.00;99.90;;;;;;7371943;19;20039;-48
2022/12/12 08:42:39;;;;;;;21.30;13.93;;;1.00;99.90;;;;;;7369967;19;20035;-49
2022/12/12 08:45:06;;;;;;;18.92;12.45;;;1.10;99.90;;;;;;7371978;19;20019;-47
2022/12/12 08:47:32;;;;;;;19.85;13.50;;;1.10;99.90;;;;;;7369251;19;20265;-47
2022/12/12 08:49:58;;;;;;;21.00;13.00;;;1.10;99.90;;;;;;7369977;19;20025;-46
2022/12/12 08:52:25;;;;;;;20.77;13.98;;;1.10;99.90;;;;;;7372136;19;20023;-49
2022/12/12 08:54:51;;;;;;;21.58;13.60;;;1.20;99.90;;;;;;7367177;19;20097;-46
2022/12/12 08:57:20;;;;;;;22.63;14.00;;;1.20;99.90;;;;;;7370754;19;20029;-49
2022/12/12 08:59:47;;;;;;;21.60;15.07;;;1.20;99.90;;;;;;7370328;19;20015;-44
2022/12/12 09:02:13;;;;;;;20.42;14.13;;;1.20;99.90;;;;;;7372307;19;20130;-44
2022/12/12 09:04:49;;;;;;;21.85;13.45;;;1.20;99.90;;;;;;7369582;19;20498;-46
2022/12/12 09:07:20;;;;;;;21.02;13.57;;;1.20;99.90;;;;;;7368884;19;20014;-44
2022/12/12 09:09:47;;;;;;;18.10;12.55;;;1.30;99.90;;;;;;7369848;19;20014;-47
2022/12/12 09:12:15;;;;;;;18.92;13.68;;;1.30;99.90;;;;;;7373569;19;20636;-44
2022/12/12 09:14:41;;;;;;;18.20;11.75;;;1.30;99.90;;;;;;7370497;19;20075;-44
2022/12/12 09:17:07;;;;;;;24.33;14.57;;;1.30;99.90;;;;;;7373667;19;20019;-49
2022/12/12 09:19:46;;;;;;;18.65;12.55;;;1.40;99.90;;;;;;7369580;19;20470;-47
2022/12/12 09:22:13;;;;;;;21.60;13.57;;;1.40;99.90;;;;;;7365515;19;20106;-48
2022/12/12 09:24:39;;;;;;;19.58;13.60;;;1.40;99.90;;;;;;7376377;19;20010;-47
2022/12/12 09:27:06;;;;;;;19.45;12.65;;;1.40;99.90;;;;;;7376376;19;20021;-47
2022/12/12 09:29:33;;;;;;;21.15;13.63;;;1.50;99.90;;;;;;7375622;19;20042;-51
2022/12/12 09:32:05;;;;;;;18.20;12.32;;;1.50;99.90;;;;;;7378027;19;20034;-49
2022/12/12 09:34:37;;;;;;;19.23;12.50;;;1.50;99.90;;;;;;7377566;19;20515;-48
2022/12/12 09:37:05;;;;;;;16.58;12.32;;;1.60;99.90;;;;;;7379431;19;20021;-48
2022/12/12 09:39:41;;;;;;;21.52;13.75;;;1.70;99.90;;;;;;7371298;19;20102;-48
2022/12/12 09:42:24;;;;;;;18.25;12.55;;;1.70;99.90;;;;;;7375624;19;20026;-43
2022/12/12 09:44:56;;;;;;;23.83;14.50;;;1.70;99.90;;;;;;7362624;19;20042;-44
2022/12/12 09:47:37;;;;;;;21.63;13.68;;;1.80;99.90;;;;;;7368867;19;20027;-50
2022/12/12 09:50:34;;;;;;;19.15;12.70;;;1.80;99.90;;;;;;7379130;19;20022;-45
2022/12/12 09:53:21;;;;;;;18.83;13.07;;;1.80;99.90;;;;;;7374787;19;20018;-49
2022/12/12 09:56:08;;;;;;;21.80;13.75;;;1.80;99.90;;;;;;7373701;19;20770;-45
2022/12/12 09:58:51;;;;;;;19.80;14.02;;;1.80;99.90;;;;;;7373416;19;20454;-44
2022/12/12 10:01:36;;;;;;;24.80;15.18;;;1.80;99.90;;;;;;7371199;19;20384;-45
2022/12/12 10:04:28;;;;;;;22.73;14.93;;;1.80;99.90;;;;;;7376744;19;20434;-46
2022/12/12 10:07:02;;;;;;;26.13;17.02;;;1.80;99.90;;;;;;7380014;19;20025;-51
2022/12/12 10:09:58;;;;;;;25.27;17.35;;;1.80;99.90;;;;;;7374442;19;20018;-47
2022/12/12 10:12:28;;;;;;;29.50;18.23;;;1.80;99.90;;;;;;7369745;19;20017;-49
2022/12/12 10:15:03;;;;;;;27.45;16.85;;;1.80;99.90;;;;;;7373075;19;20611;-45
2022/12/12 10:17:41;;;;;;;27.48;18.77;;;1.70;99.90;;;;;;7370676;19;20568;-46
2022/12/12 10:20:20;;;;;;;29.70;18.58;;;1.70;99.90;;;;;;7371950;19;20362;-48
2022/12/12 10:22:52;;;;;;;26.88;17.33;;;1.70;99.90;;;;;;7370897;19;20051;-47
2022/12/12 10:25:37;;;;;;;28.33;17.95;;;1.70;99.90;;;;;;7364013;19;20093;-46
2022/12/12 10:28:26;;;;;;;32.97;18.98;;;1.70;99.90;;;;;;7361596;19;20018;-49
2022/12/12 10:31:24;;;;;;;30.42;17.70;;;1.80;99.90;;;;;;7366012;19;20038;-47
2022/12/12 10:34:39;;;;;;;30.08;18.08;;;1.90;99.90;;;;;;7362940;19;20018;-43
2022/12/12 10:37:05;;;;;;;31.15;19.83;;;1.90;99.90;;;;;;7362949;19;20338;-44
2022/12/12 10:39:52;;;;;;;30.15;18.65;;;2.00;99.90;;;;;;7362507;19;20486;-44
2022/12/12 10:42:23;;;;;;;27.85;17.95;;;2.00;99.90;;;;;;7361516;19;20125;-44
2022/12/12 10:45:12;;;;;;;31.30;18.13;;;2.10;99.90;;;;;;7359625;19;20146;-47
2022/12/12 10:47:38;;;;;;;32.40;18.50;;;2.20;99.90;;;;;;7361328;19;20019;-45
2022/12/12 10:50:42;;;;;;;28.98;18.27;;;2.20;99.90;;;;;;7362840;19;20487;-45
2022/12/12 10:53:11;;;;;;;30.88;18.15;;;2.20;99.90;;;;;;7361088;19;20014;-45
2022/12/12 10:55:49;;;;;;;31.75;18.58;;;2.30;99.90;;;;;;7364807;19;20018;-44
2022/12/12 10:58:18;;;;;;;30.40;18.30;;;2.40;99.90;;;;;;7363724;19;20110;-44
2022/12/12 11:00:48;;;;;;;148.40;96.15;;;2.40;99.90;;;;;;7361867;19;20558;-44
2022/12/12 11:03:25;;;;;;;30.27;19.08;;;2.50;99.90;;;;;;7360445;19;20056;-48
2022/12/12 11:05:53;;;;;;;26.92;16.90;;;2.50;99.90;;;;;;7365039;19;20037;-46
2022/12/12 11:08:31;;;;;;;27.08;16.52;;;2.50;99.90;;;;;;7362398;19;20019;-47
2022/12/12 11:11:03;;;;;;;32.63;18.17;;;2.50;99.90;;;;;;7363479;19;20023;-44
2022/12/12 11:13:37;;;;;;;26.60;16.92;;;2.60;99.90;;;;;;7364053;19;20561;-44
2022/12/12 11:16:11;;;;;;;30.13;18.50;;;2.50;99.90;;;;;;7369331;19;20600;-43
2022/12/12 11:18:38;;;;;;;26.15;18.60;;;2.50;99.90;;;;;;7370953;19;20557;-43
2022/12/12 11:21:10;;;;;;;28.25;19.02;;;2.60;99.90;;;;;;7368220;19;20479;-46
2022/12/12 11:23:47;;;;;;;29.00;18.55;;;2.60;99.90;;;;;;7370298;19;20026;-46
2022/12/12 11:26:18;;;;;;;28.98;19.50;;;2.50;99.90;;;;;;7370256;19;20038;-46
2022/12/12 11:28:59;;;;;;;;;;;2.50;99.90;;;;;;7368253;19;20018;-43
2022/12/12 11:31:32;;;;;;;27.42;18.00;;;2.40;99.90;;;;;;7372375;19;19958;-43
2022/12/12 11:34:01;;;;;;;29.63;17.73;;;2.40;99.90;;;;;;7372089;19;20109;-45
2022/12/12 11:36:32;;;;;;;28.75;18.35;;;2.30;99.90;;;;;;7362991;19;20018;-43
2022/12/12 11:39:02;;;;;;;28.05;19.10;;;2.30;99.90;;;;;;7364680;19;20504;-43
2022/12/12 11:41:56;;;;;;;27.95;18.63;;;2.40;99.90;;;;;;7356545;19;20083;-44
2022/12/12 11:44:26;;;;;;;29.80;19.10;;;2.30;99.90;;;;;;7368272;19;20010;-44
2022/12/12 11:47:25;;;;;;;28.02;17.45;;;2.40;99.90;;;;;;7369346;19;20018;-44
2022/12/12 11:50:26;;;;;;;30.55;19.48;;;2.40;99.90;;;;;;7372585;19;20031;-47
2022/12/12 11:53:12;;;;;;;29.98;20.02;;;2.40;99.90;;;;;;7372593;19;20029;-49
2022/12/12 11:56:11;;;;;;;30.60;19.30;;;2.40;99.90;;;;;;7369375;19;20035;-48
2022/12/12 11:58:45;;;;;;;29.88;18.65;;;2.50;99.90;;;;;;7372244;19;20022;-44
2022/12/12 12:01:30;;;;;;;31.92;19.40;;;2.50;99.90;;;;;;7371563;19;20014;-44
2022/12/12 12:04:14;;;;;;;29.40;17.70;;;2.50;99.90;;;;;;7370325;19;20026;-45
2022/12/12 12:06:56;;;;;;;28.25;18.38;;;2.50;99.90;;;;;;7364602;19;20026;-44
2022/12/12 12:09:39;;;;;;;28.70;18.73;;;2.50;99.90;;;;;;7363790;19;20018;-42
2022/12/12 12:12:16;;;;;;;28.27;16.90;;;2.60;99.90;;;;;;7365748;19;20573;-44
2022/12/12 12:14:48;;;;;;;29.95;18.17;;;2.70;99.90;;;;;;7362868;19;20411;-43
2022/12/12 12:17:20;;;;;;;30.27;19.13;;;2.60;99.90;;;;;;7367318;19;20078;-46
2022/12/12 12:20:08;;;;;;;32.72;18.52;;;2.60;99.90;;;;;;7362242;19;20434;-44
2022/12/12 12:23:23;;;;;;;31.92;20.42;;;2.60;99.90;;;;;;7362536;19;20018;-45
2022/12/12 12:25:57;;;;;;;29.48;18.98;;;2.70;99.90;;;;;;7356635;19;20031;-44
2022/12/12 12:29:04;;;;;;;28.75;19.27;;;2.80;99.90;;;;;;7368270;19;20464;-43
2022/12/12 12:31:41;;;;;;;29.75;19.48;;;2.80;99.90;;;;;;7367696;19;20022;-43
2022/12/12 12:34:41;;;;;;;30.00;19.83;;;2.80;99.90;;;;;;7370068;19;20559;-44
2022/12/12 12:37:45;;;;;;;29.52;18.75;;;2.80;99.90;;;;;;7370091;19;20022;-44
2022/12/12 12:40:30;;;;;;;34.38;20.27;;;2.70;99.90;;;;;;7370719;19;20015;-48
2022/12/12 12:43:12;;;;;;;30.27;18.60;;;2.70;99.90;;;;;;7369667;19;20018;-47
2022/12/12 12:45:50;;;;;;;32.00;20.27;;;2.70;99.90;;;;;;7370149;19;20082;-42
2022/12/12 12:48:31;;;;;;;28.42;17.77;;;2.70;99.90;;;;;;7368760;19;20534;-43
2022/12/12 12:51:08;;;;;;;29.35;18.67;;;2.70;99.90;;;;;;7366357;19;20393;-46
2022/12/12 12:53:45;;;;;;;32.13;20.25;;;2.70;99.90;;;;;;7367526;19;20023;-43
2022/12/12 12:56:22;;;;;;;27.92;20.20;;;2.60;99.90;;;;;;7360072;19;20018;-46
2022/12/12 12:58:51;;;;;;;29.65;19.98;;;2.60;99.90;;;;;;7368774;19;20051;-45
2022/12/12 13:01:26;;;;;;;29.83;19.52;;;2.60;99.90;;;;;;7369539;19;20486;-42
2022/12/12 13:04:27;;;;;;;29.73;19.40;;;2.60;99.90;;;;;;7374833;19;20085;-43
2022/12/12 13:07:01;;;;;;;27.42;18.52;;;2.50;99.90;;;;;;7374392;19;20023;-44
2022/12/12 13:10:07;;;;;;;34.65;19.25;;;2.60;99.90;;;;;;7376553;19;20743;-45
2022/12/12 13:12:45;;;;;;;27.45;17.05;;;2.60;99.90;;;;;;7373917;19;20089;-45
2022/12/12 13:15:26;;;;;;;32.38;18.27;;;2.70;99.90;;;;;;7373361;19;20049;-46
2022/12/12 13:18:05;;;;;;;27.80;18.27;;;2.70;99.90;;;;;;7371266;19;20463;-45
2022/12/12 13:20:37;;;;;;;25.73;17.95;;;2.80;99.90;;;;;;7375317;19;20038;-45
2022/12/12 13:23:16;;;;;;;30.90;18.98;;;2.90;99.90;;;;;;7379875;19;20107;-44
2022/12/12 13:26:12;;;;;;;29.30;18.40;;;3.00;99.90;;;;;;7374034;19;20089;-47
2022/12/12 13:28:49;;;;;;;25.42;16.38;;;3.10;99.90;;;;;;7371103;19;20585;-46
2022/12/12 13:31:21;;;;;;;27.20;17.35;;;3.00;99.90;;;;;;7370840;19;20371;-46
2022/12/12 13:34:11;;;;;;;29.52;17.85;;;2.90;99.90;;;;;;7370451;19;20066;-45